createdAt,value
2023-04-12T00:02:10.984Z,12.90
2023-04-12T00:04:38.096Z,12.80
2023-04-12T00:07:06.083Z,12.80
2023-04-12T00:09:36.333Z,12.80
2023-04-12T00:12:06.351Z,12.80
2023-04-12T00:14:33.336Z,12.80
2023-04-12T00:17:00.766Z,12.70
2023-04-12T00:19:27.823Z,12.70
2023-04-12T00:21:54.973Z,12.70
2023-04-12T00:24:22.238Z,12.70
2023-04-12T00:26:49.199Z,12.70
2023-04-12T00:29:16.845Z,12.60
2023-04-12T00:31:43.962Z,12.60
2023-04-12T00:34:11.317Z,12.50
2023-04-12T00:36:38.180Z,12.50
2023-04-12T00:39:09.014Z,12.50
2023-04-12T00:41:37.584Z,12.50
2023-04-12T00:44:05.825Z,12.50
2023-04-12T00:46:33.231Z,12.50
2023-04-12T00:49:02.875Z,12.40
2023-04-12T00:51:33.461Z,12.40
2023-04-12T00:54:01.571Z,12.40
2023-04-12T00:56:29.764Z,12.40
2023-04-12T00:58:57.870Z,12.30
2023-04-12T01:01:25.019Z,12.30
2023-04-12T01:03:54.576Z,12.30
2023-04-12T01:06:37.365Z,12.30
2023-04-12T01:09:35.009Z,12.30
2023-04-12T01:12:21.869Z,12.30
2023-04-12T01:15:07.549Z,12.30
2023-04-12T01:17:41.552Z,12.30
2023-04-12T01:20:31.961Z,12.30
2023-04-12T01:22:58.916Z,12.20
2023-04-12T01:25:47.736Z,12.20
2023-04-12T01:28:20.372Z,12.20
2023-04-12T01:30:50.140Z,12.20
2023-04-12T01:33:18.875Z,12.10
2023-04-12T01:35:46.932Z,12.10
2023-04-12T01:38:14.406Z,12.10
2023-04-12T01:40:42.733Z,12.10
2023-04-12T01:43:12.194Z,12.10
2023-04-12T01:45:39.394Z,12.10
2023-04-12T01:48:09.679Z,12.10
2023-04-12T01:51:06.405Z,12.10
2023-04-12T01:53:36.970Z,12.10
2023-04-12T01:56:09.405Z,12.10
2023-04-12T01:58:39.953Z,12.10
2023-04-12T02:01:09.658Z,12.10
2023-04-12T02:03:43.097Z,12.10
2023-04-12T02:06:12.016Z,12.10
2023-04-12T02:08:38.973Z,12.10
2023-04-12T02:11:14.682Z,12.10
2023-04-12T02:13:44.928Z,12.10
2023-04-12T02:16:14.161Z,12.10
2023-04-12T02:18:42.289Z,12.00
2023-04-12T02:21:11.387Z,12.00
2023-04-12T02:23:38.249Z,12.00
2023-04-12T02:26:06.609Z,12.00
2023-04-12T02:28:34.846Z,11.90
2023-04-12T02:31:02.257Z,12.00
2023-04-12T02:33:31.666Z,12.00
2023-04-12T02:38:29.802Z,11.90
2023-04-12T02:40:58.809Z,11.90
2023-04-12T02:43:25.780Z,11.90
2023-04-12T02:45:59.696Z,11.90
2023-04-12T02:48:26.723Z,11.80
2023-04-12T02:50:53.950Z,11.80
2023-04-12T02:53:23.321Z,11.90
2023-04-12T02:56:19.740Z,11.80
2023-04-12T02:58:50.646Z,11.80
2023-04-12T03:01:32.235Z,11.80
2023-04-12T03:04:22.724Z,11.70
2023-04-12T03:06:55.540Z,11.70
2023-04-12T03:09:32.351Z,11.70
2023-04-12T03:11:59.705Z,11.80
2023-04-12T03:14:26.952Z,11.80
2023-04-12T03:16:54.128Z,11.80
2023-04-12T03:19:21.035Z,11.80
2023-04-12T03:21:54.925Z,11.80
2023-04-12T03:24:22.502Z,11.70
2023-04-12T03:26:52.211Z,11.70
2023-04-12T03:29:23.401Z,11.70
2023-04-12T03:31:59.878Z,11.60
2023-04-12T03:34:34.950Z,11.60
2023-04-12T03:37:10.320Z,11.60
2023-04-12T03:39:48.571Z,11.60
2023-04-12T03:42:32.231Z,11.60
2023-04-12T03:45:04.849Z,11.60
2023-04-12T03:47:33.215Z,11.60
2023-04-12T03:50:12.378Z,11.50
2023-04-12T03:52:44.481Z,11.50
2023-04-12T03:55:12.502Z,11.50
2023-04-12T03:57:42.103Z,11.50
2023-04-12T04:00:10.237Z,11.50
2023-04-12T04:03:03.414Z,11.50
2023-04-12T04:05:34.324Z,11.50
2023-04-12T04:08:02.776Z,11.50
2023-04-12T04:10:36.918Z,11.50
2023-04-12T04:13:04.581Z,11.50
2023-04-12T04:15:32.667Z,11.50
2023-04-12T04:17:59.869Z,11.50
2023-04-12T04:20:27.836Z,11.50
2023-04-12T04:22:55.012Z,11.50
2023-04-12T04:25:31.135Z,11.50
2023-04-12T04:28:02.802Z,11.50
2023-04-12T04:30:34.297Z,11.60
2023-04-12T04:33:05.777Z,11.60
2023-04-12T04:35:33.496Z,11.60
2023-04-12T04:38:26.250Z,11.60
2023-04-12T04:41:06.368Z,11.60
2023-04-12T04:44:00.608Z,11.60
2023-04-12T04:46:31.137Z,11.60
2023-04-12T04:48:58.704Z,11.60
2023-04-12T04:51:25.701Z,11.50
2023-04-12T04:53:55.293Z,11.60
2023-04-12T04:56:25.750Z,11.60
2023-04-12T04:58:55.408Z,11.60
2023-04-12T05:01:29.401Z,11.60
2023-04-12T05:04:01.910Z,11.60
2023-04-12T05:06:28.911Z,11.60
2023-04-12T05:08:58.242Z,11.60
2023-04-12T05:11:26.082Z,11.60
2023-04-12T05:13:53.724Z,11.70
2023-04-12T05:16:24.118Z,11.70
2023-04-12T05:18:51.327Z,11.70
2023-04-12T05:21:19.060Z,11.60
2023-04-12T05:23:47.182Z,11.60
2023-04-12T05:26:14.368Z,11.60
2023-04-12T05:28:45.993Z,11.60
2023-04-12T05:31:13.842Z,11.60
2023-04-12T05:33:41.234Z,11.60
2023-04-12T05:36:08.879Z,11.50
2023-04-12T05:38:36.137Z,11.50
2023-04-12T05:41:07.431Z,11.40
2023-04-12T05:43:34.552Z,11.40
2023-04-12T05:46:02.534Z,11.40
2023-04-12T05:48:30.727Z,11.40
2023-04-12T05:51:02.798Z,11.40
2023-04-12T05:53:32.977Z,11.40
2023-04-12T05:56:02.939Z,11.40
2023-04-12T05:58:30.263Z,11.50
2023-04-12T06:00:58.899Z,11.50
2023-04-12T06:03:30.890Z,11.50
2023-04-12T06:06:08.506Z,11.50
2023-04-12T06:08:36.711Z,11.60
2023-04-12T06:11:08.096Z,11.60
2023-04-12T06:13:37.779Z,11.60
2023-04-12T06:16:05.641Z,11.60
2023-04-12T06:18:33.301Z,11.70
2023-04-12T06:21:00.616Z,11.70
2023-04-12T06:23:27.705Z,11.70
2023-04-12T06:25:54.585Z,11.70
2023-04-12T06:28:24.877Z,11.80
2023-04-12T06:30:54.168Z,11.80
2023-04-12T06:33:23.505Z,11.90
2023-04-12T06:35:51.612Z,11.90
2023-04-12T06:38:19.166Z,11.90
2023-04-12T06:40:47.090Z,11.90
2023-04-12T06:43:15.700Z,12.00
2023-04-12T06:45:42.793Z,12.00
2023-04-12T06:48:09.830Z,12.00
2023-04-12T06:50:37.145Z,12.10
2023-04-12T06:53:04.538Z,12.20
2023-04-12T06:55:31.653Z,12.20
2023-04-12T06:57:58.982Z,12.20
2023-04-12T07:00:26.090Z,12.20
2023-04-12T07:02:53.338Z,12.20
2023-04-12T07:05:26.049Z,12.30
2023-04-12T07:07:53.057Z,12.40
2023-04-12T07:10:20.635Z,12.40
2023-04-12T07:12:47.467Z,12.40
2023-04-12T07:15:14.303Z,12.40
2023-04-12T07:17:41.250Z,12.40
2023-04-12T07:20:08.760Z,12.50
2023-04-12T07:22:35.607Z,12.50
2023-04-12T07:25:02.472Z,12.50
2023-04-12T07:27:29.349Z,12.50
2023-04-12T07:29:58.046Z,12.60
2023-04-12T07:32:26.115Z,12.70
2023-04-12T07:34:53.617Z,12.80
2023-04-12T07:37:20.674Z,12.80
2023-04-12T07:39:47.466Z,12.90
2023-04-12T07:42:16.624Z,12.90
2023-04-12T07:44:43.922Z,13.00
2023-04-12T07:47:10.937Z,13.10
2023-04-12T07:49:37.858Z,13.20
2023-04-12T07:52:04.976Z,13.20
2023-04-12T07:54:31.742Z,13.20
2023-04-12T07:57:00.705Z,13.10
2023-04-12T07:59:27.808Z,13.20
2023-04-12T08:01:55.061Z,13.20
2023-04-12T08:04:22.487Z,13.40
2023-04-12T08:06:49.360Z,13.40
2023-04-12T08:09:16.496Z,13.60
2023-04-12T08:11:43.525Z,13.60
2023-04-12T08:14:10.634Z,13.60
2023-04-12T08:16:37.547Z,13.50
2023-04-12T08:19:04.651Z,13.40
2023-04-12T08:21:31.884Z,13.20
2023-04-12T08:24:03.254Z,13.10
2023-04-12T08:26:30.182Z,13.10
2023-04-12T08:28:58.471Z,13.10
2023-04-12T08:31:25.657Z,13.20
2023-04-12T08:33:57.245Z,13.30
2023-04-12T08:36:24.468Z,13.40
2023-04-12T08:38:53.130Z,13.50
2023-04-12T08:41:20.379Z,13.40
2023-04-12T08:43:48.646Z,13.40
2023-04-12T08:46:16.685Z,13.50
2023-04-12T08:48:46.491Z,13.60
2023-04-12T08:51:16.620Z,13.70
2023-04-12T08:53:43.757Z,13.90
2023-04-12T08:56:12.257Z,14.20
2023-04-12T08:58:46.878Z,14.60
2023-04-12T09:01:15.696Z,15.00
2023-04-12T09:03:46.909Z,15.30
2023-04-12T09:06:14.080Z,15.40
2023-04-12T09:08:55.186Z,15.40
2023-04-12T09:11:27.118Z,15.50
2023-04-12T09:13:58.483Z,15.60
2023-04-12T09:16:42.521Z,15.60
2023-04-12T09:19:10.042Z,15.70
2023-04-12T09:21:37.470Z,15.70
2023-04-12T09:24:14.792Z,15.70
2023-04-12T09:26:42.357Z,15.80
2023-04-12T09:29:25.755Z,15.90
2023-04-12T09:32:04.111Z,15.90
2023-04-12T09:34:33.605Z,15.90
2023-04-12T09:37:04.361Z,15.90
2023-04-12T09:39:33.718Z,15.80
2023-04-12T09:42:17.874Z,15.90
2023-04-12T09:44:53.681Z,16.00
2023-04-12T09:47:21.177Z,16.10
2023-04-12T09:49:48.327Z,16.10
2023-04-12T09:52:15.351Z,16.30
2023-04-12T09:54:42.864Z,16.50
2023-04-12T09:57:11.590Z,16.70
2023-04-12T09:59:40.551Z,16.80
2023-04-12T10:02:16.156Z,16.80
2023-04-12T10:04:43.549Z,16.70
2023-04-12T10:07:13.867Z,16.80
2023-04-12T10:09:42.195Z,16.70
2023-04-12T10:12:09.605Z,16.50
2023-04-12T10:14:37.199Z,16.30
2023-04-12T10:17:05.728Z,16.00
2023-04-12T10:19:37.387Z,15.50
2023-04-12T10:22:04.312Z,15.00
2023-04-12T10:24:33.430Z,14.70
2023-04-12T10:27:03.178Z,14.50
2023-04-12T10:29:34.642Z,14.60
2023-04-12T10:32:21.445Z,15.00
2023-04-12T10:34:58.991Z,15.60
2023-04-12T10:38:07.222Z,15.90
2023-04-12T10:40:35.646Z,16.20
2023-04-12T10:43:27.821Z,16.40
2023-04-12T10:45:54.959Z,16.50
2023-04-12T10:48:31.607Z,16.40
2023-04-12T10:51:28.038Z,16.40
2023-04-12T10:54:16.004Z,16.40
2023-04-12T10:56:44.768Z,16.30
2023-04-12T10:59:31.410Z,16.30
2023-04-12T11:02:09.401Z,16.20
2023-04-12T11:04:37.490Z,16.20
2023-04-12T11:07:11.994Z,16.10
2023-04-12T11:09:42.947Z,16.10
2023-04-12T11:12:15.707Z,16.00
2023-04-12T11:14:51.082Z,15.90
2023-04-12T11:17:23.965Z,15.90
2023-04-12T11:19:57.050Z,15.90
2023-04-12T11:22:29.252Z,15.80
2023-04-12T11:25:01.885Z,15.80
2023-04-12T11:27:30.433Z,15.90
2023-04-12T11:29:59.647Z,15.90
2023-04-12T11:32:28.952Z,15.90
2023-04-12T11:34:57.122Z,16.00
2023-04-12T11:37:26.856Z,16.10
2023-04-12T11:39:57.112Z,16.30
2023-04-12T11:42:26.249Z,16.40
2023-04-12T11:44:58.941Z,16.50
2023-04-12T11:47:29.161Z,16.60
2023-04-12T11:49:58.261Z,16.60
2023-04-12T11:52:30.748Z,16.40
2023-04-12T11:55:06.442Z,16.40
2023-04-12T11:57:34.526Z,16.40
2023-04-12T12:00:02.227Z,16.50
2023-04-12T12:02:52.553Z,16.60
2023-04-12T12:05:24.001Z,16.50
2023-04-12T12:07:52.815Z,16.50
2023-04-12T12:10:37.774Z,16.40
2023-04-12T12:13:16.111Z,16.20
2023-04-12T12:15:46.302Z,16.10
2023-04-12T12:18:13.691Z,16.00
2023-04-12T12:20:49.375Z,16.00
2023-04-12T12:23:33.161Z,16.10
2023-04-12T12:26:16.984Z,16.20
2023-04-12T12:28:51.272Z,16.20
2023-04-12T12:31:28.020Z,16.30
2023-04-12T12:33:57.246Z,16.20
2023-04-12T12:36:36.316Z,16.20
2023-04-12T12:39:11.597Z,16.30
2023-04-12T12:41:41.235Z,16.30
2023-04-12T12:44:08.651Z,16.30
2023-04-12T12:49:06.456Z,16.10
2023-04-12T12:51:33.357Z,16.00
2023-04-12T12:54:01.309Z,15.70
2023-04-12T12:56:28.222Z,15.40
2023-04-12T12:58:55.297Z,15.20
2023-04-12T13:01:22.435Z,15.00
2023-04-12T13:03:49.958Z,14.90
2023-04-12T13:06:18.395Z,14.60
2023-04-12T13:08:46.670Z,14.50
2023-04-12T13:11:13.807Z,14.70
2023-04-12T13:13:42.080Z,14.60
2023-04-12T13:16:09.400Z,14.40
2023-04-12T13:18:36.317Z,14.30
2023-04-12T13:21:03.482Z,14.40
2023-04-12T13:23:30.763Z,14.50
2023-04-12T13:25:57.587Z,14.60
2023-04-12T13:28:24.926Z,14.70
2023-04-12T13:30:51.872Z,14.60
2023-04-12T13:33:21.547Z,14.60
2023-04-12T13:35:49.218Z,14.70
2023-04-12T13:38:16.219Z,14.90
2023-04-12T13:40:44.174Z,14.90
2023-04-12T13:43:11.102Z,14.90
2023-04-12T13:45:37.927Z,15.00
2023-04-12T13:48:04.877Z,15.30
2023-04-12T13:50:31.795Z,15.60
2023-04-12T13:52:58.858Z,15.80
2023-04-12T13:55:25.847Z,15.90
2023-04-12T13:57:53.135Z,16.00
2023-04-12T14:00:20.883Z,16.10
2023-04-12T14:02:48.065Z,16.00
2023-04-12T14:05:15.490Z,15.80
2023-04-12T14:07:43.223Z,15.60
2023-04-12T14:10:10.823Z,15.40
2023-04-12T14:12:37.632Z,15.20
2023-04-12T14:15:05.889Z,15.00
2023-04-12T14:17:33.310Z,14.90
2023-04-12T14:20:00.516Z,14.80
2023-04-12T14:22:28.142Z,14.70
2023-04-12T14:24:55.264Z,14.60
2023-04-12T14:27:22.635Z,14.70
2023-04-12T14:29:49.968Z,14.80
2023-04-12T14:32:17.130Z,14.80
2023-04-12T14:34:44.805Z,14.90
2023-04-12T14:37:14.801Z,15.00
2023-04-12T14:39:41.701Z,15.50
2023-04-12T14:42:09.902Z,15.70
2023-04-12T14:44:36.920Z,15.80
2023-04-12T14:47:03.959Z,15.70
2023-04-12T14:49:32.968Z,15.40
2023-04-12T14:52:00.831Z,15.20
2023-04-12T14:54:27.916Z,15.00
2023-04-12T14:56:56.309Z,14.90
2023-04-12T14:59:23.602Z,14.80
2023-04-12T15:01:52.759Z,14.80
2023-04-12T15:04:20.359Z,14.80
2023-04-12T15:06:47.910Z,14.80
2023-04-12T15:09:17.764Z,14.90
2023-04-12T15:11:47.988Z,15.10
2023-04-12T15:14:20.641Z,15.10
2023-04-12T15:16:51.084Z,15.10
2023-04-12T15:19:22.573Z,15.10
2023-04-12T15:21:56.788Z,15.30
2023-04-12T15:24:24.790Z,15.60
2023-04-12T15:26:53.023Z,15.70
2023-04-12T15:29:22.151Z,15.80
2023-04-12T15:31:49.369Z,16.00
2023-04-12T15:34:16.297Z,16.20
2023-04-12T15:36:47.726Z,16.50
2023-04-12T15:39:15.043Z,16.60
2023-04-12T15:41:42.915Z,16.50
2023-04-12T15:44:13.053Z,16.40
2023-04-12T15:46:41.635Z,16.40
2023-04-12T15:49:09.170Z,16.30
2023-04-12T15:51:36.231Z,16.40
2023-04-12T15:54:06.231Z,16.40
2023-04-12T15:56:36.262Z,16.50
2023-04-12T15:59:03.634Z,16.80
2023-04-12T16:01:30.561Z,17.00
2023-04-12T16:03:57.940Z,17.00
2023-04-12T16:06:25.397Z,16.90
2023-04-12T16:08:54.629Z,17.00
2023-04-12T16:11:23.970Z,17.00
2023-04-12T16:13:52.483Z,16.90
2023-04-12T16:16:23.084Z,16.90
2023-04-12T16:18:50.426Z,16.90
2023-04-12T16:21:20.251Z,16.90
2023-04-12T16:23:51.214Z,16.80
2023-04-12T16:26:21.968Z,16.70
2023-04-12T16:28:52.946Z,16.60
2023-04-12T16:31:21.185Z,16.50
2023-04-12T16:33:49.845Z,16.40
2023-04-12T16:36:16.863Z,16.30
2023-04-12T16:38:45.663Z,16.10
2023-04-12T16:41:13.161Z,16.00
2023-04-12T16:43:40.312Z,16.00
2023-04-12T16:46:09.594Z,16.00
2023-04-12T16:48:40.646Z,16.30
2023-04-12T16:51:08.920Z,16.60
2023-04-12T16:53:39.123Z,16.60
2023-04-12T16:56:06.324Z,16.60
2023-04-12T16:58:33.471Z,16.50
2023-04-12T17:01:00.502Z,16.20
2023-04-12T17:03:27.676Z,16.00
2023-04-12T17:05:55.073Z,15.90
2023-04-12T17:08:22.640Z,15.80
2023-04-12T17:10:50.076Z,15.70
2023-04-12T17:13:19.443Z,15.70
2023-04-12T17:15:49.073Z,15.80
2023-04-12T17:18:16.299Z,15.90
2023-04-12T17:20:44.165Z,16.00
2023-04-12T17:23:12.285Z,15.90
2023-04-12T17:25:39.727Z,16.00
2023-04-12T17:28:08.627Z,16.20
2023-04-12T17:30:40.117Z,16.50
2023-04-12T17:33:07.988Z,16.70
2023-04-12T17:35:36.082Z,16.70
2023-04-12T17:38:03.199Z,16.80
2023-04-12T17:40:30.578Z,17.00
2023-04-12T17:42:57.448Z,17.10
2023-04-12T17:45:24.674Z,17.20
2023-04-12T17:47:52.022Z,17.10
2023-04-12T17:50:19.015Z,16.90
2023-04-12T17:52:50.813Z,16.70
2023-04-12T17:55:23.141Z,16.40
2023-04-12T17:57:53.181Z,16.10
2023-04-12T18:00:23.605Z,15.90
2023-04-12T18:02:52.222Z,15.60
2023-04-12T18:05:19.298Z,15.40
2023-04-12T18:07:46.397Z,15.10
2023-04-12T18:10:15.713Z,14.80
2023-04-12T18:12:45.268Z,14.60
2023-04-12T18:40:07.315Z,13.20
2023-04-12T18:42:34.856Z,13.00
2023-04-12T18:45:01.875Z,12.90
2023-04-12T18:47:31.559Z,12.90
2023-04-12T18:49:58.615Z,12.90
2023-04-12T18:52:25.657Z,12.90
2023-04-12T18:54:52.671Z,12.90
2023-04-12T18:57:24.222Z,12.90
2023-04-12T19:00:14.341Z,12.90
2023-04-12T19:02:51.579Z,12.90
2023-04-12T19:05:54.023Z,12.90
2023-04-12T19:09:04.578Z,12.90
2023-04-12T19:12:17.180Z,12.80
2023-04-12T19:15:20.936Z,12.80
2023-04-12T19:39:28.736Z,12.20
2023-04-12T19:42:24.449Z,12.20
2023-04-12T19:59:27.457Z,11.90
2023-04-12T20:02:13.622Z,11.90
2023-04-12T20:12:34.600Z,11.80
2023-04-12T20:15:09.455Z,11.80
2023-04-12T20:17:36.817Z,11.80
2023-04-12T20:20:08.734Z,11.80
2023-04-12T20:22:36.254Z,11.70
2023-04-12T20:25:05.332Z,11.70
2023-04-12T20:27:33.012Z,11.70
2023-04-12T20:30:01.206Z,11.80
2023-04-12T20:32:28.376Z,11.80
2023-04-12T20:34:55.570Z,11.70
2023-04-12T20:37:23.470Z,11.70
2023-04-12T20:39:54.571Z,11.70
2023-04-12T20:42:23.629Z,11.60
2023-04-12T20:44:56.484Z,11.60
2023-04-12T20:47:23.424Z,11.60
2023-04-12T20:49:55.199Z,11.50
2023-04-12T20:52:22.829Z,11.50
2023-04-12T20:54:49.801Z,11.50
2023-04-12T20:57:19.931Z,11.50
2023-04-12T20:59:47.520Z,11.50
2023-04-12T21:02:16.598Z,11.50
2023-04-12T21:04:45.178Z,11.50
2023-04-12T21:07:12.865Z,11.50
2023-04-12T21:09:40.104Z,11.50
2023-04-12T21:12:08.880Z,11.50
2023-04-12T21:14:37.805Z,11.50
2023-04-12T21:17:07.386Z,11.50
2023-04-12T21:19:41.694Z,11.50
2023-04-12T21:22:09.839Z,11.50
2023-04-12T21:24:38.669Z,11.40
2023-04-12T21:27:07.633Z,11.40
2023-04-12T21:29:41.314Z,11.40
2023-04-12T21:32:09.368Z,11.40
2023-04-12T21:34:37.641Z,11.40
2023-04-12T21:37:07.713Z,11.40
2023-04-12T21:39:34.743Z,11.40
2023-04-12T21:42:02.014Z,11.50
2023-04-12T21:44:31.078Z,11.50
2023-04-12T21:46:58.197Z,11.50
2023-04-12T21:49:25.198Z,11.50
2023-04-12T21:51:54.480Z,11.50
2023-04-12T21:54:24.921Z,11.50
2023-04-12T21:56:51.997Z,11.50
2023-04-12T21:59:18.925Z,11.50
2023-04-12T22:01:46.011Z,11.60
2023-04-12T22:04:13.063Z,11.60
2023-04-12T22:06:44.793Z,11.50
2023-04-12T22:09:11.909Z,11.50
2023-04-12T22:11:39.523Z,11.50
2023-04-12T22:14:06.453Z,11.40
2023-04-12T22:16:33.654Z,11.40
2023-04-12T22:19:00.890Z,11.30
2023-04-12T22:21:28.793Z,11.20
2023-04-12T22:23:56.006Z,11.00
2023-04-12T22:26:23.698Z,10.90
2023-04-12T22:28:56.111Z,10.80
2023-04-12T22:31:23.457Z,10.60
2023-04-12T22:33:54.952Z,10.40
2023-04-12T22:36:22.373Z,10.20
2023-04-12T22:38:49.476Z,10.10
2023-04-12T22:41:17.254Z,10.00
2023-04-12T22:43:48.421Z,10.00
2023-04-12T22:46:18.576Z,10.00
2023-04-12T22:48:48.050Z,10.00
2023-04-12T22:51:15.689Z,10.00
2023-04-12T22:53:43.774Z,9.90
2023-04-12T22:56:11.528Z,9.90
2023-04-12T22:58:40.405Z,10.00
2023-04-12T23:01:07.811Z,10.00
2023-04-12T23:03:35.304Z,10.00
2023-04-12T23:06:02.319Z,10.00
2023-04-12T23:08:31.920Z,10.00
2023-04-12T23:11:03.373Z,10.00
2023-04-12T23:13:34.510Z,10.10
2023-04-12T23:16:07.804Z,10.10
2023-04-12T23:18:34.721Z,10.10
2023-04-12T23:21:05.330Z,10.10
2023-04-12T23:23:32.215Z,10.10
2023-04-12T23:25:59.523Z,10.10
2023-04-12T23:28:28.537Z,10.20
2023-04-12T23:30:58.005Z,10.20
2023-04-12T23:33:25.354Z,10.20
2023-04-12T23:35:53.050Z,10.20
2023-04-12T23:38:24.581Z,10.20
2023-04-12T23:40:54.222Z,10.20
2023-04-12T23:43:22.809Z,10.20
2023-04-12T23:45:50.428Z,10.10
2023-04-12T23:48:17.533Z,10.10
2023-04-12T23:50:48.512Z,10.10
2023-04-12T23:53:17.177Z,10.10
2023-04-12T23:55:47.729Z,10.10
2023-04-12T23:58:14.637Z,10.10
